KJAXKEYW

Guest
Details From KJAX - Jacksonville Intl
To KEYW - Key West Intl
Flight Number -
Tags Decoded
Created
Modified
Stats Distance 355 nm / 657 km
Max Altitude 0 ft / 0 m
Waypoints 2
Social Downloads 1
Likes 0
Share VATSIM

Download

Looking for another format? Having issues loading an existing format? Contact us
Advertisement - Login to hide

Notes

Decoded

Route

KJAX EYW

ID Type Via Altitude Latitude Longitude Leg Dist Tot Dist Heading (true) Name
O KJAX APT - 0 ft / 0 m 30.49216˚ -81.70084˚ - 0 nm - -
O EYW VOR - 0 ft / 0 m 24.58589˚ -81.80047˚ 354 nm 354 nm 181° / 181° KEY WEST VORTAC

Altitude Profile

Advertisement - Login to hide

Weather


0- 5 10 15 20 25 30 35+ Temperature / ° C

Clouds and Precipitation
Forecast for 2017-12-17 06:00 UTC. Updated 2 hours ago

Ground ~20,000 ft ~40,000 ft Winds

KJAX

Details ICAO KJAX (JAX)
Name Jacksonville Intl
Region United States
Timezone America/New_York (UTC-5.0)
Stats Elevation 30 ft / 9 m (AMSL)
Location 30.493037° -81.688273°
Runways 2
Magnetic Variation 6.466° W

METAR

KJAX 170256Z 00000KT 10SM CLR 08/06 A3029 RMK AO2 SLP258 T00780056 51005 $

Decode

TAF

KJAX 162345Z 1700/1724 00000KT P6SM FEW250 FM171500 12005KT P6SM FEW030 BKN150

Decode

Departure Runways

ID Width Length Bearing (true) Bearing (mag) Surface Threshold Offset Overrun Length
08 151 ft / 46 m 9,989 ft / 3,045 m 70.45° 76.92° Concrete 0 ft / 0 m 400 ft / 122 m
14 151 ft / 46 m 7,703 ft / 2,348 m 130.70° 137.17° Concrete 0 ft / 0 m 200 ft / 61 m
26 151 ft / 46 m 9,989 ft / 3,045 m 250.47° 256.94° Concrete 0 ft / 0 m 400 ft / 122 m
32 151 ft / 46 m 7,703 ft / 2,348 m 310.70° 317.17° Concrete 0 ft / 0 m 200 ft / 61 m

KEYW

Details ICAO KEYW (EYW)
Name Key West Intl
Region United States
Timezone America/New_York (UTC-5.0)
Stats Elevation 2 ft / 1 m (AMSL)
Location 24.556124° -81.759546°
Runways 1
Magnetic Variation 5.546° W

METAR

KEYW 170253Z AUTO 05006KT 10SM CLR 22/18 A3020 RMK AO2 SLP227 T02170178 53014

Decode

TAF

TAF KEYW 162331Z 1700/1724 07011G19KT P6SM FEW025 SCT250 FM170900 08013G20KT P6SM FEW020 SCT040 SCT250

Decode

Destination Runways

ID Width Length Bearing (true) Bearing (mag) Surface Threshold Offset Overrun Length
09 100 ft / 30 m 4,794 ft / 1,461 m 89.38° 94.93° Asphalt 151 ft / 46 m 0 ft / 0 m
27 100 ft / 30 m 4,794 ft / 1,461 m 269.39° 274.94° Asphalt 151 ft / 46 m 0 ft / 0 m

Popular Alternatives